Time;durP1;ratioP1;P1;durP2;ratioP2;P2;SDS_P1;SDS_P2;PMS_P1;PMS_P2;Temp;Humidity;BMP_temperature;BMP_pressure;BME280_temperature;BME280_humidity;BME280_pressure;Samples;Min_cycle;Max_cycle;Signal;HPM_P1;HPM_P2
2021/07/26 00:00:13;;;;;;;12.27;9.55;;;;;;;;;;4961051;29;20047;-77
2021/07/26 00:02:40;;;;;;;12.10;9.48;;;;;;;;;;4960687;28;20079;-78
2021/07/26 00:05:07;;;;;;;13.25;9.68;;;;;;;;;;4960542;29;20052;-77
2021/07/26 00:07:34;;;;;;;12.82;10.25;;;;;;;;;;4960847;28;20051;-77
2021/07/26 00:10:03;;;;;;;13.73;9.88;;;;;;;;;;4964203;28;20497;-77
2021/07/26 00:12:30;;;;;;;12.55;9.57;;;;;;;;;;4963275;29;20047;-78
2021/07/26 00:14:59;;;;;;;11.95;9.73;;;;;;;;;;4963748;28;20055;-78
2021/07/26 00:17:26;;;;;;;12.55;10.15;;;;;;;;;;4963616;28;20054;-78
2021/07/26 00:19:53;;;;;;;14.88;10.40;;;;;;;;;;4963918;29;20043;-77
2021/07/26 00:22:20;;;;;;;15.68;11.35;;;;;;;;;;4964387;29;20059;-77
2021/07/26 00:24:46;;;;;;;16.02;11.85;;;;;;;;;;4963833;29;20051;-77
2021/07/26 00:27:13;;;;;;;15.40;11.30;;;;;;;;;;4964068;29;20288;-78
2021/07/26 00:29:40;;;;;;;17.17;12.35;;;;;;;;;;4963552;29;20051;-78
2021/07/26 00:32:08;;;;;;;18.60;12.82;;;;;;;;;;4963207;29;20051;-77
2021/07/26 00:34:35;;;;;;;19.17;11.77;;;;;;;;;;4964341;29;20069;-77
2021/07/26 00:37:03;;;;;;;15.60;11.68;;;;;;;;;;4964768;29;20055;-78
2021/07/26 00:39:31;;;;;;;14.75;10.98;;;;;;;;;;4964638;29;20134;-77
2021/07/26 00:41:59;;;;;;;13.38;9.50;;;;;;;;;;4965041;29;20051;-77
2021/07/26 00:44:27;;;;;;;14.80;10.43;;;;;;;;;;4963677;28;20047;-77
2021/07/26 00:46:55;;;;;;;16.83;11.23;;;;;;;;;;4963499;29;20074;-77
2021/07/26 00:49:25;;;;;;;13.80;10.40;;;;;;;;;;4961480;29;20043;-77
2021/07/26 00:51:54;;;;;;;15.43;11.40;;;;;;;;;;4963544;28;20051;-77
2021/07/26 00:54:23;;;;;;;13.50;10.68;;;;;;;;;;4963997;29;20055;-78
2021/07/26 00:56:52;;;;;;;13.73;9.70;;;;;;;;;;4965063;29;20047;-79
2021/07/26 00:59:19;;;;;;;14.18;11.02;;;;;;;;;;4969663;28;20457;-78
2021/07/26 01:01:46;;;;;;;13.85;10.57;;;;;;;;;;4970140;28;20105;-78
2021/07/26 01:04:13;;;;;;;19.27;12.52;;;;;;;;;;4970565;28;20047;-78
2021/07/26 01:06:43;;;;;;;16.48;10.70;;;;;;;;;;4970199;28;20055;-78
2021/07/26 01:09:10;;;;;;;15.88;11.65;;;;;;;;;;4969752;28;20075;-78
2021/07/26 01:11:37;;;;;;;13.88;9.80;;;;;;;;;;4972606;28;20051;-78
2021/07/26 01:14:04;;;;;;;15.07;10.27;;;;;;;;;;4971345;29;20075;-78
2021/07/26 01:16:31;;;;;;;19.52;15.10;;;;;;;;;;4969458;28;20086;-78
2021/07/26 01:19:01;;;;;;;14.55;10.40;;;;;;;;;;4969169;28;20051;-79
2021/07/26 01:21:30;;;;;;;13.43;10.07;;;;;;;;;;4962899;28;20489;-78
2021/07/26 01:23:58;;;;;;;12.23;9.38;;;;;;;;;;4961284;28;20086;-78
2021/07/26 01:26:27;;;;;;;14.68;8.23;;;;;;;;;;4960814;29;20043;-77
2021/07/26 01:28:55;;;;;;;11.95;8.52;;;;;;;;;;4962127;29;20094;-77
2021/07/26 01:33:48;;;;;;;11.93;8.02;;;;;;;;;;4985467;23;20047;-75
2021/07/26 01:36:16;;;;;;;10.80;7.55;;;;;;;;;;4974020;28;20070;-76
2021/07/26 01:42:06;;;;;;;11.57;8.07;;;;;;;;;;4956449;28;20054;-76
2021/07/26 01:44:33;;;;;;;11.73;7.82;;;;;;;;;;4955528;29;20133;-76
2021/07/26 01:47:04;;;;;;;10.82;8.20;;;;;;;;;;4954538;29;20134;-75
2021/07/26 01:49:54;;;;;;;10.23;7.68;;;;;;;;;;4955337;29;20587;-76
2021/07/26 01:52:21;;;;;;;13.57;8.48;;;;;;;;;;4952190;28;20131;-76
2021/07/26 01:54:48;;;;;;;9.93;7.85;;;;;;;;;;4954450;28;20129;-76
2021/07/26 01:57:17;;;;;;;11.68;7.75;;;;;;;;;;4954803;29;20580;-76
2021/07/26 01:59:44;;;;;;;11.77;8.15;;;;;;;;;;4955117;29;20057;-76
2021/07/26 02:02:11;;;;;;;12.90;8.90;;;;;;;;;;4954497;29;20463;-76
2021/07/26 02:04:38;;;;;;;12.48;9.32;;;;;;;;;;4954136;29;20153;-75
2021/07/26 02:07:06;;;;;;;11.30;8.55;;;;;;;;;;4954832;29;20079;-76
2021/07/26 02:09:33;;;;;;;11.32;8.20;;;;;;;;;;4955076;29;20493;-76
2021/07/26 02:12:00;;;;;;;11.32;8.20;;;;;;;;;;4954784;29;20049;-77
2021/07/26 02:14:28;;;;;;;11.63;7.47;;;;;;;;;;4954721;29;20483;-76
2021/07/26 02:16:54;;;;;;;9.27;7.75;;;;;;;;;;4953915;28;20508;-77
2021/07/26 02:19:21;;;;;;;10.15;7.53;;;;;;;;;;4954966;29;20081;-77
2021/07/26 02:21:49;;;;;;;10.88;7.68;;;;;;;;;;4954477;29;20107;-76
2021/07/26 02:24:16;;;;;;;9.05;7.00;;;;;;;;;;4954749;29;20054;-76
2021/07/26 02:26:42;;;;;;;12.20;7.75;;;;;;;;;;4954027;29;20464;-76
2021/07/26 02:29:09;;;;;;;9.68;7.53;;;;;;;;;;4954627;29;20047;-76
2021/07/26 02:31:37;;;;;;;8.77;7.00;;;;;;;;;;4954130;28;20141;-76
2021/07/26 02:34:04;;;;;;;11.52;8.02;;;;;;;;;;4954888;28;20127;-76
2021/07/26 02:36:31;;;;;;;10.98;7.53;;;;;;;;;;4954025;29;20126;-76
2021/07/26 02:38:57;;;;;;;11.02;7.40;;;;;;;;;;4955164;29;20062;-76
2021/07/26 02:41:24;;;;;;;10.50;7.72;;;;;;;;;;4970146;29;20085;-76
2021/07/26 02:43:51;;;;;;;10.55;7.97;;;;;;;;;;4969247;29;20082;-76
2021/07/26 02:46:17;;;;;;;11.40;7.65;;;;;;;;;;4969422;29;20047;-75
2021/07/26 02:48:45;;;;;;;10.40;7.25;;;;;;;;;;4966320;29;20094;-76
2021/07/26 02:51:13;;;;;;;11.38;8.20;;;;;;;;;;4957947;29;20132;-76
2021/07/26 02:53:41;;;;;;;11.90;8.15;;;;;;;;;;4956755;29;20051;-76
2021/07/26 02:56:08;;;;;;;12.55;8.05;;;;;;;;;;4954486;29;20492;-76
2021/07/26 02:58:35;;;;;;;9.98;7.35;;;;;;;;;;4954872;29;20061;-76
2021/07/26 03:01:02;;;;;;;10.88;7.20;;;;;;;;;;4954850;28;20129;-76
2021/07/26 03:03:29;;;;;;;8.38;7.18;;;;;;;;;;4954139;29;20134;-76
2021/07/26 03:05:57;;;;;;;11.13;7.53;;;;;;;;;;4953681;29;20082;-76
2021/07/26 03:08:23;;;;;;;10.43;6.95;;;;;;;;;;4954288;28;20051;-76
2021/07/26 03:10:50;;;;;;;9.93;7.05;;;;;;;;;;4954243;29;20130;-77
2021/07/26 03:13:18;;;;;;;10.32;6.70;;;;;;;;;;4954397;29;20050;-76
2021/07/26 03:15:45;;;;;;;10.43;7.50;;;;;;;;;;4953397;29;20091;-76
2021/07/26 03:18:13;;;;;;;10.18;6.55;;;;;;;;;;4953767;29;20082;-76
2021/07/26 03:20:39;;;;;;;9.98;7.28;;;;;;;;;;4954018;29;20571;-76
2021/07/26 03:23:08;;;;;;;8.73;6.47;;;;;;;;;;4953675;29;20545;-76
2021/07/26 03:25:39;;;;;;;8.52;6.70;;;;;;;;;;4953483;28;20083;-76
2021/07/26 03:28:06;;;;;;;9.27;6.72;;;;;;;;;;4953791;28;20094;-76
2021/07/26 03:30:33;;;;;;;10.70;6.93;;;;;;;;;;4953811;29;20051;-76
2021/07/26 03:33:00;;;;;;;9.98;7.05;;;;;;;;;;4953398;29;20153;-76
2021/07/26 03:35:26;;;;;;;10.00;7.05;;;;;;;;;;4953546;29;20135;-77
2021/07/26 03:37:54;;;;;;;11.77;8.32;;;;;;;;;;4953781;29;20054;-76
2021/07/26 03:40:22;;;;;;;9.88;7.90;;;;;;;;;;4954036;29;20088;-76
2021/07/26 03:42:50;;;;;;;10.25;7.90;;;;;;;;;;4953585;28;20079;-76
2021/07/26 03:45:18;;;;;;;10.30;6.88;;;;;;;;;;4956535;29;20098;-76
2021/07/26 03:47:46;;;;;;;10.32;7.07;;;;;;;;;;4957312;29;20079;-76
2021/07/26 03:50:14;;;;;;;9.02;6.60;;;;;;;;;;4957449;29;20133;-76
2021/07/26 03:52:49;;;;;;;11.70;6.70;;;;;;;;;;4957395;28;20051;-76
2021/07/26 03:55:18;;;;;;;11.50;6.20;;;;;;;;;;4956637;28;20055;-76
2021/07/26 03:57:47;;;;;;;8.93;6.70;;;;;;;;;;4957103;29;20134;-76
2021/07/26 04:00:16;;;;;;;10.00;6.35;;;;;;;;;;4957096;29;20368;-76
2021/07/26 04:02:43;;;;;;;10.20;6.95;;;;;;;;;;4956999;29;20047;-76
2021/07/26 04:05:18;;;;;;;8.90;6.50;;;;;;;;;;4956414;29;20111;-76
2021/07/26 04:07:47;;;;;;;9.43;6.60;;;;;;;;;;4957313;29;20059;-76
2021/07/26 04:10:14;;;;;;;9.50;6.25;;;;;;;;;;4957051;29;20043;-76
2021/07/26 04:12:44;;;;;;;11.25;6.70;;;;;;;;;;4957165;29;20047;-76
2021/07/26 04:15:12;;;;;;;9.50;6.33;;;;;;;;;;4956370;29;20134;-76
2021/07/26 04:17:39;;;;;;;10.23;6.95;;;;;;;;;;4956610;29;20348;-76
2021/07/26 04:20:07;;;;;;;10.10;7.80;;;;;;;;;;4956748;29;20134;-76
2021/07/26 04:22:34;;;;;;;10.57;7.93;;;;;;;;;;4956712;29;20055;-76
2021/07/26 04:25:01;;;;;;;11.63;8.77;;;;;;;;;;4955982;29;20086;-76
2021/07/26 04:27:28;;;;;;;12.35;8.55;;;;;;;;;;4956827;29;20079;-76
2021/07/26 04:29:55;;;;;;;14.27;8.00;;;;;;;;;;4956785;29;20079;-76
2021/07/26 04:32:23;;;;;;;13.75;8.00;;;;;;;;;;4956372;28;20079;-75
2021/07/26 04:34:50;;;;;;;12.13;8.30;;;;;;;;;;4955568;29;20165;-76
2021/07/26 04:37:17;;;;;;;12.80;8.07;;;;;;;;;;4956396;29;20051;-76
2021/07/26 04:39:43;;;;;;;12.18;8.15;;;;;;;;;;4956495;29;20079;-76
2021/07/26 04:42:10;;;;;;;10.15;7.20;;;;;;;;;;4956603;29;20098;-76
2021/07/26 04:44:39;;;;;;;11.88;7.80;;;;;;;;;;4955797;28;20105;-76
2021/07/26 04:47:07;;;;;;;12.20;7.05;;;;;;;;;;4956635;29;20058;-76
2021/07/26 04:49:35;;;;;;;10.70;7.50;;;;;;;;;;4957565;28;20149;-76
2021/07/26 04:52:02;;;;;;;9.70;7.03;;;;;;;;;;4958051;28;20508;-77
2021/07/26 04:54:29;;;;;;;10.68;8.05;;;;;;;;;;4956134;28;20749;-76
2021/07/26 04:56:55;;;;;;;10.73;7.40;;;;;;;;;;4955135;29;20078;-76
2021/07/26 04:59:22;;;;;;;9.43;8.13;;;;;;;;;;4956137;29;20090;-77
2021/07/26 05:01:49;;;;;;;9.18;6.82;;;;;;;;;;4955839;29;20087;-76
2021/07/26 05:04:15;;;;;;;11.57;7.32;;;;;;;;;;4956071;29;20091;-76
2021/07/26 05:06:43;;;;;;;13.30;7.32;;;;;;;;;;4955938;29;20043;-76
2021/07/26 05:09:10;;;;;;;8.82;7.25;;;;;;;;;;4955711;29;20523;-76
2021/07/26 05:11:40;;;;;;;13.60;9.50;;;;;;;;;;4955880;29;20125;-76
2021/07/26 05:14:07;;;;;;;10.65;7.88;;;;;;;;;;4956396;28;20127;-76
2021/07/26 05:16:33;;;;;;;10.30;7.35;;;;;;;;;;4955309;29;20074;-76
2021/07/26 05:19:00;;;;;;;11.68;6.90;;;;;;;;;;4955530;29;20135;-76
2021/07/26 05:21:28;;;;;;;9.95;7.53;;;;;;;;;;4955588;29;20143;-76
2021/07/26 05:23:56;;;;;;;13.27;8.75;;;;;;;;;;4955824;28;20047;-76
2021/07/26 05:26:23;;;;;;;11.45;7.80;;;;;;;;;;4955181;29;20090;-76
2021/07/26 05:28:49;;;;;;;11.15;7.40;;;;;;;;;;4955538;29;20079;-76
2021/07/26 05:31:16;;;;;;;9.63;7.13;;;;;;;;;;4955207;29;20106;-76
2021/07/26 05:33:43;;;;;;;11.10;7.53;;;;;;;;;;4955389;28;20086;-76
2021/07/26 05:36:09;;;;;;;9.60;6.80;;;;;;;;;;4954812;29;20424;-76
2021/07/26 05:38:36;;;;;;;13.00;7.20;;;;;;;;;;4955172;29;20501;-76
2021/07/26 05:41:05;;;;;;;9.18;6.45;;;;;;;;;;4955501;29;20492;-76
2021/07/26 05:43:31;;;;;;;8.60;6.22;;;;;;;;;;4955604;28;20048;-76
2021/07/26 05:45:58;;;;;;;10.73;6.90;;;;;;;;;;4954529;29;20082;-75
2021/07/26 05:48:25;;;;;;;12.35;7.07;;;;;;;;;;4955059;28;20477;-75
2021/07/26 05:50:51;;;;;;;11.85;7.18;;;;;;;;;;4954742;29;20520;-75
2021/07/26 05:53:18;;;;;;;10.65;7.18;;;;;;;;;;4955459;29;20480;-75
2021/07/26 05:55:45;;;;;;;12.07;6.93;;;;;;;;;;4954990;29;20086;-75
2021/07/26 05:58:13;;;;;;;10.63;7.55;;;;;;;;;;4955463;29;20082;-75
2021/07/26 06:00:42;;;;;;;9.45;6.30;;;;;;;;;;4955254;28;20098;-75
2021/07/26 06:03:09;;;;;;;13.50;9.15;;;;;;;;;;4954971;29;20055;-75
2021/07/26 06:05:36;;;;;;;13.02;8.98;;;;;;;;;;4954862;28;20106;-75
2021/07/26 06:08:04;;;;;;;12.45;8.90;;;;;;;;;;4954713;29;20055;-75
2021/07/26 06:10:31;;;;;;;14.57;9.10;;;;;;;;;;4954844;29;20517;-74
2021/07/26 06:12:58;;;;;;;12.85;8.13;;;;;;;;;;4962991;29;20503;-75
2021/07/26 06:15:26;;;;;;;10.23;7.50;;;;;;;;;;4976357;29;20051;-75
2021/07/26 06:17:53;;;;;;;10.38;7.43;;;;;;;;;;4976289;29;20051;-75
2021/07/26 06:20:20;;;;;;;11.13;6.80;;;;;;;;;;4974055;29;20047;-74
2021/07/26 06:22:47;;;;;;;9.05;7.00;;;;;;;;;;4961396;29;20062;-76
2021/07/26 06:25:14;;;;;;;9.32;7.40;;;;;;;;;;4954788;29;20075;-76
2021/07/26 06:27:41;;;;;;;12.07;6.55;;;;;;;;;;4955359;29;20523;-76
2021/07/26 06:30:09;;;;;;;10.70;6.75;;;;;;;;;;4955032;29;20494;-76
2021/07/26 06:32:37;;;;;;;10.30;6.85;;;;;;;;;;4954198;29;20565;-76
2021/07/26 06:35:05;;;;;;;11.68;7.22;;;;;;;;;;4954088;28;20493;-76
2021/07/26 06:37:32;;;;;;;10.77;6.72;;;;;;;;;;4954541;28;20113;-76
2021/07/26 06:39:59;;;;;;;11.32;7.03;;;;;;;;;;4954258;28;20457;-75
2021/07/26 06:42:26;;;;;;;13.55;8.00;;;;;;;;;;4955010;28;20047;-75
2021/07/26 06:44:52;;;;;;;13.73;8.43;;;;;;;;;;4954348;29;20051;-76
2021/07/26 06:47:19;;;;;;;12.68;8.40;;;;;;;;;;4955034;29;20078;-75
2021/07/26 06:49:47;;;;;;;12.38;7.72;;;;;;;;;;4954449;29;20086;-76
2021/07/26 06:52:14;;;;;;;11.05;7.13;;;;;;;;;;4953911;29;20078;-76
2021/07/26 06:54:41;;;;;;;11.45;7.05;;;;;;;;;;4953375;29;20091;-76
2021/07/26 06:57:08;;;;;;;10.23;6.07;;;;;;;;;;4954381;29;20091;-76
2021/07/26 06:59:35;;;;;;;10.40;6.75;;;;;;;;;;4954491;29;20090;-76
2021/07/26 07:02:02;;;;;;;10.40;6.32;;;;;;;;;;4954083;29;20074;-76
2021/07/26 07:04:29;;;;;;;10.43;6.60;;;;;;;;;;4948288;28;20059;-76
2021/07/26 07:06:57;;;;;;;11.57;6.80;;;;;;;;;;4951563;28;20090;-76
2021/07/26 07:09:23;;;;;;;10.77;6.30;;;;;;;;;;4952282;28;20110;-76
2021/07/26 07:11:50;;;;;;;10.02;6.38;;;;;;;;;;4947243;29;20075;-76
2021/07/26 07:14:17;;;;;;;10.70;6.15;;;;;;;;;;4934438;29;20102;-76
2021/07/26 07:16:44;;;;;;;11.07;6.18;;;;;;;;;;4932909;29;20043;-76
2021/07/26 07:19:11;;;;;;;9.88;6.22;;;;;;;;;;4935507;29;20055;-76
2021/07/26 07:21:37;;;;;;;12.55;6.85;;;;;;;;;;4937037;29;20056;-77
2021/07/26 07:24:06;;;;;;;8.88;6.35;;;;;;;;;;4936769;29;20111;-76
2021/07/26 07:26:34;;;;;;;9.55;6.55;;;;;;;;;;4936233;29;20461;-76
2021/07/26 07:29:01;;;;;;;11.15;6.30;;;;;;;;;;4937059;29;20103;-77
2021/07/26 07:31:27;;;;;;;9.43;6.75;;;;;;;;;;4936099;29;20564;-77
2021/07/26 07:33:55;;;;;;;8.18;5.28;;;;;;;;;;4962816;23;20055;-77
2021/07/26 07:36:22;;;;;;;11.77;6.05;;;;;;;;;;4955358;29;20047;-77
2021/07/26 07:38:49;;;;;;;8.57;5.95;;;;;;;;;;4956282;29;20146;-77
2021/07/26 07:41:18;;;;;;;9.63;5.57;;;;;;;;;;4956272;29;20047;-78
2021/07/26 07:43:45;;;;;;;10.68;5.28;;;;;;;;;;4956050;29;20086;-78
2021/07/26 07:46:12;;;;;;;9.27;5.53;;;;;;;;;;4956078;29;20090;-78
2021/07/26 07:48:39;;;;;;;8.85;5.20;;;;;;;;;;4956238;28;20500;-78
2021/07/26 07:51:08;;;;;;;10.65;8.10;;;;;;;;;;4956187;28;20425;-79
2021/07/26 07:53:36;;;;;;;9.55;6.03;;;;;;;;;;4956449;29;20646;-77
2021/07/26 07:56:03;;;;;;;8.82;5.60;;;;;;;;;;4955558;28;20075;-78
2021/07/26 07:58:31;;;;;;;10.63;5.55;;;;;;;;;;4956192;28;20110;-77
2021/07/26 08:00:58;;;;;;;8.77;4.88;;;;;;;;;;4956018;28;20473;-77
2021/07/26 08:03:26;;;;;;;9.15;6.28;;;;;;;;;;4967478;28;20350;-78
2021/07/26 08:05:53;;;;;;;9.90;5.53;;;;;;;;;;4975858;28;20138;-76
2021/07/26 08:08:21;;;;;;;12.05;5.63;;;;;;;;;;4960298;29;20047;-82
2021/07/26 08:10:48;;;;;;;9.32;6.00;;;;;;;;;;4959504;28;20047;-82
2021/07/26 08:13:19;;;;;;;9.13;5.85;;;;;;;;;;4955784;29;20123;-77
2021/07/26 08:15:50;;;;;;;7.90;5.25;;;;;;;;;;4950453;28;20131;-76
2021/07/26 08:18:17;;;;;;;12.35;6.50;;;;;;;;;;4935823;29;20059;-76
2021/07/26 08:20:44;;;;;;;10.48;8.05;;;;;;;;;;4935830;29;20075;-77
2021/07/26 08:23:10;;;;;;;9.95;5.57;;;;;;;;;;4935951;29;20094;-77
2021/07/26 08:25:37;;;;;;;8.95;6.25;;;;;;;;;;4934836;29;20837;-76
2021/07/26 08:28:04;;;;;;;8.23;5.78;;;;;;;;;;4935955;29;20090;-76
2021/07/26 08:30:33;;;;;;;10.73;5.38;;;;;;;;;;4935237;29;20142;-76
2021/07/26 08:33:02;;;;;;;7.63;5.93;;;;;;;;;;4935136;29;20130;-76
2021/07/26 08:35:29;;;;;;;8.73;6.05;;;;;;;;;;4934948;29;20170;-76
2021/07/26 08:37:56;;;;;;;10.65;6.80;;;;;;;;;;4935313;29;20051;-77
2021/07/26 08:40:25;;;;;;;10.75;6.97;;;;;;;;;;4935342;29;20095;-76
2021/07/26 08:42:52;;;;;;;9.02;6.50;;;;;;;;;;4935178;29;20111;-75
2021/07/26 08:45:19;;;;;;;11.05;7.45;;;;;;;;;;4935036;29;20044;-76
2021/07/26 08:47:47;;;;;;;10.25;7.35;;;;;;;;;;4935251;29;20083;-76
2021/07/26 08:50:17;;;;;;;13.23;8.57;;;;;;;;;;4934979;29;20674;-76
2021/07/26 08:52:45;;;;;;;14.25;6.75;;;;;;;;;;4935318;29;20135;-76
2021/07/26 08:55:13;;;;;;;11.38;6.55;;;;;;;;;;4934847;29;20134;-76
2021/07/26 08:57:45;;;;;;;11.50;6.65;;;;;;;;;;4935065;29;20494;-76
2021/07/26 09:00:14;;;;;;;10.30;7.13;;;;;;;;;;4935162;29;20090;-76
2021/07/26 09:02:41;;;;;;;11.05;6.82;;;;;;;;;;4916875;29;20102;-76
2021/07/26 09:05:09;;;;;;;10.60;6.90;;;;;;;;;;4915684;29;20076;-78
2021/07/26 09:07:40;;;;;;;10.20;7.30;;;;;;;;;;4916598;29;20502;-77
2021/07/26 09:10:13;;;;;;;9.43;6.68;;;;;;;;;;4916608;29;20059;-76
2021/07/26 09:12:41;;;;;;;11.13;6.55;;;;;;;;;;4915956;29;20139;-76
2021/07/26 09:15:22;;;;;;;10.15;6.95;;;;;;;;;;4915637;29;20084;-77
2021/07/26 09:17:49;;;;;;;10.32;6.75;;;;;;;;;;4916028;29;20056;-77
2021/07/26 09:20:16;;;;;;;10.40;6.78;;;;;;;;;;4915939;29;20482;-76
2021/07/26 09:22:46;;;;;;;14.00;6.88;;;;;;;;;;4916330;29;20052;-76
2021/07/26 09:25:19;;;;;;;9.30;6.43;;;;;;;;;;4925399;29;20444;-76
2021/07/26 09:28:07;;;;;;;9.48;6.95;;;;;;;;;;4919771;29;20059;-76
2021/07/26 09:30:40;;;;;;;11.35;8.10;;;;;;;;;;4920411;29;20131;-76
2021/07/26 09:33:16;;;;;;;14.20;7.25;;;;;;;;;;4915379;29;20062;-78
2021/07/26 09:35:43;;;;;;;10.77;7.95;;;;;;;;;;4915010;29;20083;-77
2021/07/26 09:38:13;;;;;;;9.95;6.60;;;;;;;;;;4917024;29;20402;-76
2021/07/26 09:40:40;;;;;;;;;;;;;;;;;;4918133;29;20671;-76
2021/07/26 09:43:16;;;;;;;9.70;6.32;;;;;;;;;;4915516;29;19970;-77
2021/07/26 09:45:43;;;;;;;8.70;5.97;;;;;;;;;;4914925;29;20528;-77
2021/07/26 09:48:12;;;;;;;11.93;7.68;;;;;;;;;;4915389;29;20090;-76
2021/07/26 09:50:40;;;;;;;9.95;6.22;;;;;;;;;;4915253;29;20512;-77
2021/07/26 09:53:08;;;;;;;10.05;6.88;;;;;;;;;;4915036;29;20048;-77
2021/07/26 09:55:37;;;;;;;10.65;6.35;;;;;;;;;;4914401;29;20048;-77
2021/07/26 09:58:04;;;;;;;12.80;7.63;;;;;;;;;;4915375;29;20079;-77
2021/07/26 10:00:31;;;;;;;10.38;7.53;;;;;;;;;;4914995;29;20510;-76
2021/07/26 10:02:59;;;;;;;10.85;6.90;;;;;;;;;;4915199;29;20048;-77
2021/07/26 10:05:28;;;;;;;8.75;5.85;;;;;;;;;;4914467;29;20083;-77
2021/07/26 10:07:55;;;;;;;10.00;6.43;;;;;;;;;;4914976;29;20056;-77
2021/07/26 10:10:22;;;;;;;9.77;6.35;;;;;;;;;;4914855;29;20044;-78
2021/07/26 10:12:51;;;;;;;7.90;5.57;;;;;;;;;;4914760;29;20044;-76
2021/07/26 10:15:19;;;;;;;10.80;6.65;;;;;;;;;;4914456;29;20082;-77
2021/07/26 10:17:47;;;;;;;9.35;5.63;;;;;;;;;;4915193;29;20054;-78
2021/07/26 10:20:19;;;;;;;8.35;5.85;;;;;;;;;;4914759;29;20044;-77
2021/07/26 10:22:51;;;;;;;8.18;5.80;;;;;;;;;;4915113;29;20048;-77
2021/07/26 10:25:21;;;;;;;9.07;6.05;;;;;;;;;;4914560;29;20421;-76
2021/07/26 10:27:49;;;;;;;;;;;;;;;;;;4914986;29;20052;-77
2021/07/26 10:30:36;;;;;;;11.10;7.65;;;;;;;;;;4914340;29;20445;-77
2021/07/26 10:33:04;;;;;;;10.40;6.28;;;;;;;;;;4914519;29;20083;-76
2021/07/26 10:35:36;;;;;;;10.02;6.35;;;;;;;;;;4915347;29;20087;-77
2021/07/26 10:38:03;;;;;;;7.72;5.47;;;;;;;;;;4914560;29;20127;-76
2021/07/26 10:40:32;;;;;;;8.48;5.20;;;;;;;;;;4914606;29;20076;-78
2021/07/26 10:43:02;;;;;;;8.10;5.50;;;;;;;;;;4914872;29;20083;-77
2021/07/26 10:46:00;;;;;;;7.43;5.47;;;;;;;;;;4914256;29;20052;-76
2021/07/26 10:48:37;;;;;;;7.88;5.00;;;;;;;;;;4914359;29;20102;-76
2021/07/26 10:51:40;;;;;;;11.02;5.50;;;;;;;;;;4914237;29;20387;-77
2021/07/26 10:54:08;;;;;;;7.28;5.00;;;;;;;;;;4914070;29;20091;-76
2021/07/26 10:57:08;;;;;;;7.97;5.25;;;;;;;;;;4913372;29;20413;-76
2021/07/26 11:00:12;;;;;;;7.60;5.30;;;;;;;;;;4914241;29;20052;-76
2021/07/26 11:02:42;;;;;;;7.28;5.03;;;;;;;;;;4914383;29;20498;-77
2021/07/26 11:05:34;;;;;;;9.00;4.88;;;;;;;;;;4914864;29;20075;-77
2021/07/26 11:08:28;;;;;;;8.45;5.20;;;;;;;;;;4914226;29;20052;-76
2021/07/26 11:10:58;;;;;;;7.55;4.97;;;;;;;;;;4914077;29;20574;-78
2021/07/26 11:13:46;;;;;;;8.93;4.95;;;;;;;;;;4914338;29;20117;-77
2021/07/26 11:16:13;;;;;;;7.25;4.93;;;;;;;;;;4913418;29;20072;-76
2021/07/26 11:18:41;;;;;;;8.93;5.15;;;;;;;;;;4914191;29;20079;-77
2021/07/26 11:21:10;;;;;;;7.60;5.70;;;;;;;;;;4914171;29;20103;-77
2021/07/26 11:23:48;;;;;;;7.38;5.00;;;;;;;;;;4914066;29;20087;-77
2021/07/26 11:26:17;;;;;;;7.45;5.40;;;;;;;;;;4913351;29;20557;-77
2021/07/26 11:28:44;;;;;;;10.20;6.15;;;;;;;;;;4914388;29;20084;-76
2021/07/26 11:31:12;;;;;;;11.65;5.93;;;;;;;;;;4913812;29;20473;-77
2021/07/26 11:33:38;;;;;;;9.57;7.00;;;;;;;;;;4913953;29;20138;-77
2021/07/26 11:36:10;;;;;;;12.10;8.13;;;;;;;;;;4913421;29;20087;-77
2021/07/26 11:39:03;;;;;;;8.40;5.63;;;;;;;;;;4914195;29;20055;-78
2021/07/26 11:41:30;;;;;;;8.02;6.00;;;;;;;;;;4914251;29;20052;-77
2021/07/26 11:43:57;;;;;;;8.98;5.85;;;;;;;;;;4914239;29;20105;-76
2021/07/26 11:46:26;;;;;;;9.13;5.57;;;;;;;;;;4914025;29;20048;-77
2021/07/26 11:48:57;;;;;;;8.38;6.00;;;;;;;;;;4913726;29;20584;-77
2021/07/26 11:51:30;;;;;;;10.10;5.53;;;;;;;;;;4913822;29;20083;-76
2021/07/26 11:53:59;;;;;;;8.57;5.88;;;;;;;;;;4913995;29;20095;-75
2021/07/26 11:56:28;;;;;;;8.45;5.75;;;;;;;;;;4913853;29;20543;-77
2021/07/26 11:59:10;;;;;;;9.88;5.55;;;;;;;;;;4914572;29;20115;-76
2021/07/26 12:01:38;;;;;;;8.13;5.55;;;;;;;;;;4913963;29;20084;-76
2021/07/26 12:04:05;;;;;;;7.25;5.53;;;;;;;;;;4914530;29;20079;-78
2021/07/26 12:06:51;;;;;;;7.47;5.40;;;;;;;;;;4918899;29;20079;-77
2021/07/26 12:09:18;;;;;;;9.90;6.63;;;;;;;;;;4919294;29;20533;-77
2021/07/26 12:11:45;;;;;;;9.80;6.07;;;;;;;;;;4928487;29;20066;-77
2021/07/26 12:14:29;;;;;;;9.20;6.13;;;;;;;;;;4959758;29;20083;-78
2021/07/26 12:17:00;;;;;;;8.77;5.85;;;;;;;;;;4958541;29;20053;-77
2021/07/26 12:19:27;;;;;;;8.60;5.72;;;;;;;;;;4959620;29;20078;-78
2021/07/26 12:21:55;;;;;;;8.90;6.35;;;;;;;;;;4960019;29;20085;-77
2021/07/26 12:24:50;;;;;;;8.30;6.05;;;;;;;;;;4960103;28;20110;-77
2021/07/26 12:27:32;;;;;;;14.85;13.10;;;;;;;;;;4959452;28;20070;-77
2021/07/26 12:30:02;;;;;;;8.45;6.30;;;;;;;;;;4959737;28;20047;-78
2021/07/26 12:32:29;;;;;;;8.35;5.55;;;;;;;;;;4960134;29;20083;-78
2021/07/26 12:35:33;;;;;;;21.10;12.93;;;;;;;;;;4962869;29;20465;-79
2021/07/26 12:38:20;;;;;;;66.72;40.65;;;;;;;;;;4966678;29;20492;-78
2021/07/26 12:40:50;;;;;;;14.95;10.45;;;;;;;;;;4957949;28;20137;-77
2021/07/26 12:43:18;;;;;;;16.05;10.90;;;;;;;;;;4958398;28;20143;-76
2021/07/26 12:45:57;;;;;;;13.00;8.93;;;;;;;;;;4957280;29;20098;-79
2021/07/26 12:48:25;;;;;;;12.68;8.32;;;;;;;;;;4958074;29;20079;-77
2021/07/26 12:50:53;;;;;;;15.90;11.48;;;;;;;;;;4958039;28;20051;-79
2021/07/26 12:53:21;;;;;;;14.95;10.20;;;;;;;;;;4957735;28;20102;-76
2021/07/26 12:55:49;;;;;;;12.30;8.70;;;;;;;;;;4956692;28;20496;-77
2021/07/26 12:58:17;;;;;;;13.40;8.50;;;;;;;;;;4958856;29;20078;-77
2021/07/26 13:00:46;;;;;;;9.15;5.95;;;;;;;;;;4956521;29;20048;-78
2021/07/26 13:03:14;;;;;;;8.25;5.50;;;;;;;;;;4938751;29;20088;-77
2021/07/26 13:05:42;;;;;;;10.38;6.82;;;;;;;;;;4938450;29;20111;-77
2021/07/26 13:08:09;;;;;;;10.88;6.32;;;;;;;;;;4938042;29;20086;-77
2021/07/26 13:10:39;;;;;;;10.05;6.43;;;;;;;;;;4938633;29;20071;-77
2021/07/26 13:13:07;;;;;;;9.95;8.95;;;;;;;;;;4940955;29;20054;-78
2021/07/26 13:15:35;;;;;;;10.98;8.20;;;;;;;;;;4938638;29;20099;-77
2021/07/26 13:18:02;;;;;;;13.33;9.10;;;;;;;;;;4938013;29;20082;-77
2021/07/26 13:20:29;;;;;;;8.95;6.57;;;;;;;;;;4940363;29;20633;-77
2021/07/26 13:22:56;;;;;;;9.48;6.68;;;;;;;;;;4940481;29;20044;-78
2021/07/26 13:25:23;;;;;;;8.85;6.63;;;;;;;;;;4939480;29;20094;-77
2021/07/26 13:27:51;;;;;;;12.45;9.27;;;;;;;;;;4937971;29;20051;-78
2021/07/26 13:30:17;;;;;;;12.07;7.70;;;;;;;;;;4939285;29;20048;-77
2021/07/26 13:32:44;;;;;;;11.30;9.05;;;;;;;;;;4959462;23;20078;-78
2021/07/26 13:35:11;;;;;;;8.70;6.15;;;;;;;;;;4972938;28;20101;-77
2021/07/26 13:37:38;;;;;;;9.52;7.35;;;;;;;;;;4974211;28;20086;-77
2021/07/26 13:40:06;;;;;;;11.73;9.07;;;;;;;;;;4973925;28;20081;-78
2021/07/26 13:42:33;;;;;;;10.23;7.10;;;;;;;;;;4973449;28;20082;-77
2021/07/26 13:45:02;;;;;;;8.82;7.15;;;;;;;;;;4972926;28;20073;-77
2021/07/26 13:47:30;;;;;;;10.65;7.70;;;;;;;;;;4973152;28;20043;-77
2021/07/26 13:49:57;;;;;;;10.80;6.55;;;;;;;;;;4974464;28;20134;-78
2021/07/26 13:52:24;;;;;;;9.85;6.32;;;;;;;;;;4975850;28;20046;-77
2021/07/26 13:54:51;;;;;;;8.85;6.75;;;;;;;;;;4974517;28;20038;-77
2021/07/26 13:57:17;;;;;;;9.25;6.07;;;;;;;;;;4974722;28;20078;-77
2021/07/26 13:59:44;;;;;;;7.93;5.55;;;;;;;;;;4974505;28;20578;-78
2021/07/26 14:02:13;;;;;;;7.90;6.05;;;;;;;;;;4959807;28;20085;-77
2021/07/26 14:04:40;;;;;;;7.05;6.00;;;;;;;;;;4954029;29;20105;-77
2021/07/26 14:07:07;;;;;;;9.07;6.22;;;;;;;;;;4954450;29;20082;-77
2021/07/26 14:09:34;;;;;;;7.57;5.93;;;;;;;;;;4954227;29;20110;-77
2021/07/26 14:12:02;;;;;;;8.18;6.13;;;;;;;;;;4954480;29;20078;-77
2021/07/26 14:14:29;;;;;;;8.07;6.18;;;;;;;;;;4954911;28;20053;-77
2021/07/26 14:16:57;;;;;;;9.82;5.70;;;;;;;;;;4953777;28;20078;-77
2021/07/26 14:19:28;;;;;;;9.65;6.82;;;;;;;;;;4954690;28;20118;-78
2021/07/26 14:21:55;;;;;;;8.65;5.38;;;;;;;;;;4954822;28;20051;-77
2021/07/26 14:24:22;;;;;;;9.00;6.43;;;;;;;;;;4954585;28;20082;-77
2021/07/26 14:26:48;;;;;;;7.55;5.75;;;;;;;;;;4954382;28;20087;-77
2021/07/26 14:29:15;;;;;;;10.57;8.38;;;;;;;;;;4954946;28;20087;-77
2021/07/26 14:31:42;;;;;;;13.75;7.18;;;;;;;;;;4954710;28;20079;-77
2021/07/26 14:34:09;;;;;;;8.48;5.97;;;;;;;;;;4953875;28;20401;-78
2021/07/26 14:36:37;;;;;;;7.93;5.90;;;;;;;;;;4955780;28;20436;-77
2021/07/26 14:39:03;;;;;;;8.43;5.95;;;;;;;;;;4963758;28;20043;-77
2021/07/26 14:41:30;;;;;;;10.50;5.40;;;;;;;;;;4962484;28;20623;-77
2021/07/26 14:43:57;;;;;;;8.00;5.90;;;;;;;;;;4959378;28;20093;-77
2021/07/26 14:46:24;;;;;;;11.70;6.38;;;;;;;;;;4953681;28;20223;-78
2021/07/26 14:48:50;;;;;;;9.10;6.18;;;;;;;;;;4953175;28;20082;-78